createdAt,value
2022-10-03T00:01:40.098Z,2.00
2022-10-03T00:04:27.522Z,1.13
2022-10-03T00:07:08.566Z,2.10
2022-10-03T00:09:56.809Z,2.53
2022-10-03T00:12:47.543Z,2.70
2022-10-03T00:15:25.908Z,1.43
2022-10-03T00:18:05.216Z,1.50
2022-10-03T00:20:47.136Z,1.97
2022-10-03T00:23:23.169Z,2.30
2022-10-03T00:26:25.049Z,1.73
2022-10-03T00:29:06.149Z,1.50
2022-10-03T00:31:48.802Z,1.40
2022-10-03T00:34:32.490Z,1.97
2022-10-03T00:37:24.835Z,1.30
2022-10-03T00:40:32.799Z,2.27
2022-10-03T00:43:43.515Z,1.70
2022-10-03T00:46:44.829Z,1.70
2022-10-03T00:49:41.756Z,1.83
2022-10-03T00:52:36.182Z,1.83
2022-10-03T00:55:18.551Z,1.60
2022-10-03T00:58:08.264Z,1.40
2022-10-03T01:00:37.986Z,1.23
2022-10-03T01:03:40.729Z,1.30
2022-10-03T01:06:21.501Z,2.00
2022-10-03T01:09:09.871Z,1.40
2022-10-03T01:11:51.378Z,1.80
2022-10-03T01:14:38.740Z,2.97
2022-10-03T01:17:15.831Z,3.20
2022-10-03T01:20:00.891Z,3.50
2022-10-03T01:22:54.165Z,1.60
2022-10-03T01:25:38.939Z,1.60
2022-10-03T01:28:52.735Z,1.60
2022-10-03T01:31:27.150Z,2.37
2022-10-03T01:34:05.550Z,1.53
2022-10-03T01:36:44.927Z,2.20
2022-10-03T01:39:23.382Z,1.67
2022-10-03T01:42:01.000Z,1.87
2022-10-03T01:44:42.607Z,1.70
2022-10-03T01:47:21.659Z,2.63
2022-10-03T01:49:56.053Z,1.30
2022-10-03T01:52:35.480Z,3.67
2022-10-03T01:55:15.743Z,2.47
2022-10-03T01:57:50.386Z,2.80
2022-10-03T02:00:24.110Z,1.80
2022-10-03T02:03:02.685Z,1.80
2022-10-03T02:05:44.874Z,2.33
2022-10-03T02:08:28.512Z,1.63
2022-10-03T02:11:02.956Z,2.70
2022-10-03T02:13:42.327Z,2.77
2022-10-03T02:16:19.434Z,2.33
2022-10-03T02:18:55.614Z,2.50
2022-10-03T02:21:27.159Z,1.67
2022-10-03T02:24:20.377Z,0.93
2022-10-03T02:27:12.566Z,1.57
2022-10-03T02:30:12.874Z,3.83
2022-10-03T02:33:10.953Z,1.30
2022-10-03T02:36:11.502Z,2.43
2022-10-03T02:39:23.278Z,3.40
2022-10-03T02:42:28.913Z,1.50
2022-10-03T02:45:34.968Z,1.10
2022-10-03T02:48:43.226Z,1.50
2022-10-03T02:51:43.131Z,1.10
2022-10-03T02:54:47.377Z,2.20
2022-10-03T02:57:52.472Z,2.43
2022-10-03T03:00:22.763Z,2.43
2022-10-03T03:03:31.583Z,2.70
2022-10-03T03:06:31.277Z,2.17
2022-10-03T03:09:30.611Z,1.60
2022-10-03T03:12:41.342Z,3.00
2022-10-03T03:16:03.625Z,1.70
2022-10-03T03:18:39.792Z,2.30
2022-10-03T03:21:22.871Z,1.80
2022-10-03T03:24:19.748Z,1.83
2022-10-03T03:27:22.680Z,2.60
2022-10-03T03:30:05.492Z,1.90
2022-10-03T03:32:50.098Z,3.07
2022-10-03T03:35:32.974Z,1.67
2022-10-03T03:38:14.418Z,2.10
2022-10-03T03:40:55.558Z,1.53
2022-10-03T03:44:20.722Z,2.33
2022-10-03T03:47:24.980Z,1.67
2022-10-03T03:50:13.709Z,1.53
2022-10-03T03:52:59.410Z,2.37
2022-10-03T03:55:48.844Z,1.67
2022-10-03T03:58:34.221Z,2.40
2022-10-03T04:01:36.844Z,2.93
2022-10-03T04:04:18.255Z,1.77
2022-10-03T04:06:58.036Z,1.73
2022-10-03T04:09:43.714Z,1.27
2022-10-03T04:12:26.577Z,2.07
2022-10-03T04:15:33.954Z,1.10
2022-10-03T04:18:41.307Z,3.70
2022-10-03T04:21:29.847Z,2.73
2022-10-03T04:24:12.481Z,1.77
2022-10-03T04:27:04.113Z,2.00
2022-10-03T04:29:48.343Z,1.90
2022-10-03T04:32:46.056Z,1.67
2022-10-03T04:35:40.190Z,1.27
2022-10-03T04:38:15.816Z,2.20
2022-10-03T04:40:56.025Z,2.10
2022-10-03T04:43:37.054Z,2.20
2022-10-03T04:46:25.309Z,2.13
2022-10-03T04:49:02.531Z,3.23
2022-10-03T04:51:44.268Z,2.40
2022-10-03T04:54:24.101Z,1.20
2022-10-03T04:57:00.441Z,4.27
2022-10-03T04:59:44.549Z,2.43
2022-10-03T05:02:26.994Z,2.90
2022-10-03T05:05:23.151Z,2.20
2022-10-03T05:08:06.385Z,2.20
2022-10-03T05:10:57.455Z,1.40
2022-10-03T05:13:41.104Z,2.37
2022-10-03T05:16:18.939Z,2.27
2022-10-03T05:18:53.910Z,1.80
2022-10-03T05:21:34.826Z,2.37
2022-10-03T05:24:15.789Z,2.03
2022-10-03T05:26:55.271Z,2.83
2022-10-03T05:29:34.121Z,1.70
2022-10-03T05:32:18.475Z,1.67
2022-10-03T05:35:05.575Z,2.33
2022-10-03T05:38:04.876Z,2.37
2022-10-03T05:40:38.982Z,1.70
2022-10-03T05:43:24.103Z,1.63
2022-10-03T05:46:02.774Z,2.17
2022-10-03T05:48:47.499Z,2.63
2022-10-03T05:51:58.120Z,1.53
2022-10-03T05:54:47.837Z,2.17
2022-10-03T05:57:50.336Z,2.63
2022-10-03T06:00:25.165Z,2.23
2022-10-03T06:03:43.918Z,2.30
2022-10-03T06:06:24.349Z,1.70
2022-10-03T06:09:14.063Z,1.53
2022-10-03T06:12:11.181Z,2.60
2022-10-03T06:14:59.258Z,2.13
2022-10-03T06:17:54.905Z,2.40
2022-10-03T06:20:56.253Z,2.30
2022-10-03T06:23:53.238Z,2.70
2022-10-03T06:26:49.596Z,2.20
2022-10-03T06:30:12.879Z,2.57
2022-10-03T06:33:29.763Z,2.87
2022-10-03T06:36:32.826Z,2.80
2022-10-03T06:40:07.482Z,2.00
2022-10-03T06:43:15.345Z,2.37
2022-10-03T06:46:27.812Z,2.23
2022-10-03T06:49:44.286Z,2.20
2022-10-03T06:52:58.793Z,3.43
2022-10-03T06:56:04.152Z,2.53
2022-10-03T06:59:10.365Z,2.87
2022-10-03T07:02:12.016Z,2.10
2022-10-03T07:05:10.315Z,2.77
2022-10-03T07:08:21.832Z,2.90
2022-10-03T07:11:18.188Z,4.37
2022-10-03T07:14:17.057Z,3.03
2022-10-03T07:17:09.078Z,1.93
2022-10-03T07:20:06.797Z,2.93
2022-10-03T07:23:14.678Z,1.93
2022-10-03T07:26:27.849Z,2.77
2022-10-03T07:29:19.792Z,2.67
2022-10-03T07:32:03.420Z,3.00
2022-10-03T07:35:08.374Z,1.93
2022-10-03T07:38:38.624Z,2.50
2022-10-03T07:41:31.913Z,2.40
2022-10-03T07:44:47.583Z,2.40
2022-10-03T07:48:05.085Z,1.30
2022-10-03T07:51:12.402Z,1.40
2022-10-03T07:54:11.686Z,3.07
2022-10-03T07:57:23.386Z,1.67
2022-10-03T08:00:24.641Z,1.60
2022-10-03T08:03:35.281Z,1.90
2022-10-03T08:06:18.592Z,2.13
2022-10-03T08:09:23.224Z,2.60
2022-10-03T08:12:30.477Z,1.60
2022-10-03T08:15:05.510Z,1.90
2022-10-03T08:18:10.312Z,1.50
2022-10-03T08:20:53.103Z,2.03
2022-10-03T08:23:54.287Z,1.77
2022-10-03T08:26:45.066Z,2.13
2022-10-03T08:29:46.719Z,2.37
2022-10-03T08:32:30.830Z,1.73
2022-10-03T08:35:08.031Z,2.07
2022-10-03T08:37:53.890Z,2.67
2022-10-03T08:40:53.975Z,1.90
2022-10-03T08:43:41.593Z,1.90
2022-10-03T08:46:22.927Z,2.73
2022-10-03T08:49:00.813Z,5.07
2022-10-03T08:51:54.126Z,2.47
2022-10-03T08:54:34.721Z,3.27
2022-10-03T08:57:15.943Z,7.10
2022-10-03T09:00:03.040Z,2.53
2022-10-03T09:03:12.594Z,3.00
2022-10-03T09:06:03.007Z,2.63
2022-10-03T09:08:49.499Z,1.57
2022-10-03T09:11:37.004Z,1.80
2022-10-03T09:14:25.207Z,1.10
2022-10-03T09:17:03.081Z,1.27
2022-10-03T09:19:40.874Z,1.43
2022-10-03T09:22:22.588Z,1.83
2022-10-03T09:25:04.141Z,1.93
2022-10-03T09:27:47.496Z,1.97
2022-10-03T09:30:25.192Z,2.23
2022-10-03T09:33:15.645Z,1.97
2022-10-03T09:35:56.578Z,1.97
2022-10-03T09:38:38.749Z,2.50
2022-10-03T09:41:25.483Z,2.17
2022-10-03T09:44:12.146Z,2.53
2022-10-03T09:47:11.754Z,2.17
2022-10-03T09:49:55.002Z,3.23
2022-10-03T09:52:44.248Z,1.70
2022-10-03T09:55:22.592Z,1.90
2022-10-03T09:58:15.716Z,2.30
2022-10-03T10:01:19.586Z,1.63
2022-10-03T10:04:05.647Z,1.70
2022-10-03T10:06:46.797Z,1.60
2022-10-03T10:09:49.201Z,1.23
2022-10-03T10:12:51.504Z,1.60
2022-10-03T10:18:39.549Z,1.50
2022-10-03T10:21:28.867Z,2.10
2022-10-03T10:24:04.738Z,0.90
2022-10-03T10:26:51.533Z,1.20
2022-10-03T10:29:32.345Z,0.70
2022-10-03T10:32:21.809Z,0.63
2022-10-03T10:35:12.642Z,0.93
2022-10-03T10:37:57.988Z,1.00
2022-10-03T10:40:47.540Z,1.27
2022-10-03T10:43:47.408Z,0.43
2022-10-03T10:46:40.806Z,0.60
2022-10-03T10:49:31.181Z,0.60
2022-10-03T10:52:20.065Z,0.90
2022-10-03T10:55:09.722Z,1.33
2022-10-03T10:58:01.266Z,0.60
2022-10-03T11:00:39.891Z,0.40
2022-10-03T11:03:54.802Z,0.73
2022-10-03T11:06:44.358Z,0.90
2022-10-03T11:09:30.167Z,0.40
2022-10-03T11:12:26.591Z,0.60
2022-10-03T11:15:14.649Z,1.23
2022-10-03T11:17:54.000Z,0.50
2022-10-03T11:20:39.836Z,1.10
2022-10-03T11:23:44.700Z,0.83
2022-10-03T11:26:29.110Z,0.47
2022-10-03T11:29:20.073Z,0.50
2022-10-03T11:32:03.144Z,0.50
2022-10-03T11:34:49.997Z,0.80
2022-10-03T11:37:30.867Z,0.80
2022-10-03T11:40:07.541Z,0.93
2022-10-03T11:42:52.548Z,1.80
2022-10-03T11:45:29.364Z,0.60
2022-10-03T11:48:18.207Z,0.50
2022-10-03T11:50:56.348Z,0.50
2022-10-03T11:53:36.770Z,0.40
2022-10-03T11:56:24.011Z,0.40
2022-10-03T11:59:05.760Z,0.50
2022-10-03T12:01:44.269Z,0.70
2022-10-03T12:04:20.942Z,1.53
2022-10-03T12:07:18.780Z,1.50
2022-10-03T12:09:57.458Z,1.03
2022-10-03T12:12:31.637Z,0.40
2022-10-03T12:15:05.029Z,1.07
2022-10-03T12:17:36.102Z,0.50
2022-10-03T12:20:07.480Z,0.97
2022-10-03T12:22:42.731Z,0.40
2022-10-03T12:25:20.786Z,0.50
2022-10-03T12:28:05.265Z,0.70
2022-10-03T12:30:41.203Z,1.20
2022-10-03T12:33:29.508Z,1.20
2022-10-03T12:36:04.659Z,0.67
2022-10-03T12:38:40.273Z,0.70
2022-10-03T12:41:21.269Z,0.37
2022-10-03T12:43:56.122Z,0.40
2022-10-03T12:47:01.007Z,2.10
2022-10-03T12:49:35.624Z,0.80
2022-10-03T12:52:11.901Z,1.57
2022-10-03T12:54:46.952Z,0.60
2022-10-03T12:57:34.645Z,0.40
2022-10-03T13:00:08.965Z,0.53
2022-10-03T13:02:43.126Z,0.50
2022-10-03T13:05:30.967Z,0.50
2022-10-03T13:08:03.827Z,0.70
2022-10-03T13:10:42.229Z,0.77
2022-10-03T13:13:23.559Z,0.73
2022-10-03T13:16:04.656Z,0.37
2022-10-03T13:18:44.194Z,0.53
2022-10-03T13:21:44.014Z,0.50
2022-10-03T13:24:09.368Z,0.60
2022-10-03T13:26:44.029Z,0.53
2022-10-03T13:29:24.856Z,0.90
2022-10-03T13:32:03.574Z,1.10
2022-10-03T13:34:34.271Z,0.80
2022-10-03T13:37:10.256Z,0.87
2022-10-03T13:39:46.451Z,1.60
2022-10-03T13:42:21.036Z,0.40
2022-10-03T13:44:54.871Z,0.70
2022-10-03T13:47:45.267Z,1.10
2022-10-03T13:50:20.483Z,0.50
2022-10-03T13:52:54.662Z,1.37
2022-10-03T13:55:28.100Z,0.40
2022-10-03T13:58:05.997Z,0.50
2022-10-03T14:00:38.405Z,0.57
2022-10-03T14:03:16.296Z,0.60
2022-10-03T14:06:00.898Z,0.53
2022-10-03T14:08:37.994Z,0.77
2022-10-03T14:11:14.833Z,0.50
2022-10-03T14:13:53.003Z,0.97
2022-10-03T14:16:26.491Z,0.80
2022-10-03T14:19:00.262Z,0.40
2022-10-03T14:21:47.307Z,0.50
2022-10-03T14:24:24.715Z,0.60
2022-10-03T14:26:57.861Z,0.43
2022-10-03T14:29:30.637Z,0.97
2022-10-03T14:32:01.904Z,0.30
2022-10-03T14:34:40.633Z,0.50
2022-10-03T14:37:16.838Z,0.77
2022-10-03T14:39:49.796Z,0.50
2022-10-03T14:42:38.185Z,0.90
2022-10-03T14:45:10.537Z,0.87
2022-10-03T14:47:40.707Z,0.93
2022-10-03T14:50:17.314Z,0.70
2022-10-03T14:52:48.327Z,0.63
2022-10-03T14:55:22.346Z,1.40
2022-10-03T14:58:11.635Z,0.67
2022-10-03T15:00:44.051Z,0.90
2022-10-03T15:03:27.395Z,0.70
2022-10-03T15:06:03.444Z,0.70
2022-10-03T15:08:35.453Z,0.80
2022-10-03T15:11:06.582Z,0.57
2022-10-03T15:13:42.931Z,0.47
2022-10-03T15:16:13.037Z,0.60
2022-10-03T15:18:43.496Z,0.90
2022-10-03T15:21:16.649Z,0.70
2022-10-03T15:23:47.221Z,0.97
2022-10-03T15:26:18.739Z,0.60
2022-10-03T15:28:50.366Z,1.07
2022-10-03T15:31:23.834Z,1.40
2022-10-03T15:33:55.091Z,0.73
2022-10-03T15:36:27.758Z,0.80
2022-10-03T15:38:57.780Z,0.63
2022-10-03T15:41:30.361Z,0.40
2022-10-03T15:44:12.828Z,0.70
2022-10-03T15:46:43.900Z,0.53
2022-10-03T15:49:20.123Z,1.00
2022-10-03T15:51:52.737Z,0.70
2022-10-03T15:54:23.726Z,0.83
2022-10-03T15:56:55.460Z,0.87
2022-10-03T15:59:29.719Z,1.00
2022-10-03T16:02:13.242Z,0.93
2022-10-03T16:04:44.724Z,0.60
2022-10-03T16:07:23.948Z,0.90
2022-10-03T16:10:14.409Z,0.80
2022-10-03T16:13:03.654Z,0.80
2022-10-03T16:15:43.210Z,0.50
2022-10-03T16:18:26.652Z,0.87
2022-10-03T16:21:03.649Z,0.60
2022-10-03T16:23:52.612Z,0.80
2022-10-03T16:26:45.119Z,0.90
2022-10-03T16:29:16.449Z,0.80
2022-10-03T16:31:53.996Z,0.70
2022-10-03T16:34:25.664Z,1.37
2022-10-03T16:36:58.406Z,0.77
2022-10-03T16:39:36.256Z,1.30
2022-10-03T16:42:14.227Z,2.13
2022-10-03T16:44:56.335Z,0.93
2022-10-03T16:47:36.216Z,0.80
2022-10-03T16:50:23.995Z,1.07
2022-10-03T16:52:55.700Z,0.90
2022-10-03T16:55:30.702Z,1.00
2022-10-03T16:58:09.024Z,1.47
2022-10-03T17:00:46.656Z,3.17
2022-10-03T17:03:22.095Z,2.63
2022-10-03T17:06:02.326Z,2.30
2022-10-03T17:08:42.674Z,1.53
2022-10-03T17:11:26.989Z,1.20
2022-10-03T17:14:01.832Z,1.00
2022-10-03T17:16:48.054Z,1.33
2022-10-03T17:19:24.126Z,1.40
2022-10-03T17:21:55.932Z,1.03
2022-10-03T17:24:38.146Z,1.13
2022-10-03T17:27:17.678Z,0.97
2022-10-03T17:29:52.042Z,1.10
2022-10-03T17:32:25.522Z,1.67
2022-10-03T17:35:03.341Z,2.40
2022-10-03T17:38:37.026Z,1.40
2022-10-03T17:41:17.483Z,3.13
2022-10-03T17:43:58.996Z,2.10
2022-10-03T17:46:39.271Z,1.23
2022-10-03T17:49:22.411Z,1.63
2022-10-03T17:51:54.022Z,0.80
2022-10-03T17:54:28.708Z,0.90
2022-10-03T17:57:06.436Z,1.80
2022-10-03T17:59:47.985Z,1.97
2022-10-03T18:02:22.397Z,4.03
2022-10-03T18:05:01.508Z,4.93
2022-10-03T18:07:32.719Z,3.83
2022-10-03T18:10:02.440Z,3.03
2022-10-03T18:12:35.548Z,4.30
2022-10-03T18:15:36.043Z,4.00
2022-10-03T18:18:34.861Z,5.77
2022-10-03T18:21:07.991Z,4.43
2022-10-03T18:23:54.894Z,4.53
2022-10-03T18:26:30.006Z,4.43
2022-10-03T18:29:13.706Z,6.43
2022-10-03T18:31:47.568Z,5.40
2022-10-03T18:34:22.752Z,3.30
2022-10-03T18:36:54.600Z,3.40
2022-10-03T18:39:27.732Z,5.30
2022-10-03T18:42:00.435Z,7.03
2022-10-03T18:44:32.766Z,4.60
2022-10-03T18:47:21.670Z,3.63
2022-10-03T18:50:04.346Z,4.50
2022-10-03T18:52:40.042Z,4.37
2022-10-03T18:55:20.623Z,3.80
2022-10-03T18:58:00.619Z,4.60
2022-10-03T19:00:32.979Z,4.77
2022-10-03T19:03:13.891Z,4.73
2022-10-03T19:05:48.933Z,5.33
2022-10-03T19:08:23.780Z,4.97
2022-10-03T19:10:55.553Z,4.70
2022-10-03T19:13:34.747Z,5.07
2022-10-03T19:16:24.124Z,6.13
2022-10-03T19:19:05.026Z,4.73
2022-10-03T19:21:40.394Z,4.70
2022-10-03T19:24:13.388Z,5.47
2022-10-03T19:26:47.812Z,4.67
2022-10-03T19:29:22.127Z,4.87
2022-10-03T19:32:01.701Z,3.90
2022-10-03T19:34:37.915Z,1.90
2022-10-03T19:37:12.888Z,3.50
2022-10-03T19:39:41.913Z,2.43
2022-10-03T19:42:29.096Z,2.80
2022-10-03T19:45:00.077Z,3.60
2022-10-03T19:47:33.823Z,5.63
2022-10-03T19:50:14.475Z,5.87
2022-10-03T19:52:44.465Z,6.57
2022-10-03T19:55:18.024Z,5.43
2022-10-03T19:57:52.045Z,3.70
2022-10-03T20:00:37.079Z,5.20
2022-10-03T20:03:16.066Z,3.73
2022-10-03T20:06:07.418Z,3.17
2022-10-03T20:08:46.603Z,3.80
2022-10-03T20:11:42.757Z,2.77
2022-10-03T20:14:17.170Z,3.93
2022-10-03T20:16:52.866Z,2.67
2022-10-03T20:19:25.733Z,5.43
2022-10-03T20:21:57.808Z,3.87
2022-10-03T20:24:34.049Z,3.53
2022-10-03T20:27:20.383Z,3.13
2022-10-03T20:29:58.872Z,1.90
2022-10-03T20:32:28.687Z,2.00
2022-10-03T20:35:01.638Z,7.80
2022-10-03T20:37:47.406Z,5.00
2022-10-03T20:40:38.121Z,2.37
2022-10-03T20:43:37.753Z,1.77
2022-10-03T20:46:19.200Z,2.07
2022-10-03T20:49:07.267Z,2.10
2022-10-03T20:51:45.003Z,1.93
2022-10-03T20:54:19.017Z,3.43
2022-10-03T20:56:55.598Z,1.97
2022-10-03T20:59:31.732Z,2.17
2022-10-03T21:02:04.871Z,1.53
2022-10-03T21:04:38.425Z,1.77
2022-10-03T21:07:18.404Z,2.40
2022-10-03T21:10:00.887Z,1.50
2022-10-03T21:12:34.275Z,2.20
2022-10-03T21:15:08.655Z,2.13
2022-10-03T21:17:38.268Z,1.90
2022-10-03T21:20:10.130Z,2.33
2022-10-03T21:22:39.985Z,1.90
2022-10-03T21:25:23.508Z,2.47
2022-10-03T21:27:56.650Z,2.00
2022-10-03T21:34:09.614Z,2.90
2022-10-03T21:36:49.766Z,2.23
2022-10-03T21:39:23.811Z,4.10
2022-10-03T21:42:15.580Z,3.20
2022-10-03T21:45:09.601Z,3.30
2022-10-03T21:47:47.906Z,2.53
2022-10-03T21:50:23.060Z,1.83
2022-10-03T21:53:17.982Z,1.57
2022-10-03T21:56:00.401Z,1.90
2022-10-03T21:59:03.541Z,3.50
2022-10-03T22:01:39.998Z,1.70
2022-10-03T22:04:29.720Z,2.43
2022-10-03T22:07:16.538Z,2.50
2022-10-03T22:10:01.119Z,2.70
2022-10-03T22:12:45.209Z,3.20
2022-10-03T22:15:37.379Z,1.67
2022-10-03T22:18:15.158Z,1.40
2022-10-03T22:20:54.884Z,2.17
2022-10-03T22:23:40.227Z,1.40
2022-10-03T22:26:19.055Z,2.93
2022-10-03T22:29:00.319Z,2.33
2022-10-03T22:31:41.487Z,2.03
2022-10-03T22:34:26.976Z,1.30
2022-10-03T22:36:55.954Z,2.30
2022-10-03T22:39:25.324Z,2.83
2022-10-03T22:42:02.590Z,2.60
2022-10-03T22:44:34.127Z,1.93
2022-10-03T22:47:09.397Z,2.10
2022-10-03T22:49:43.004Z,2.20
2022-10-03T22:52:18.910Z,2.70
2022-10-03T22:54:50.036Z,2.50
2022-10-03T22:57:19.943Z,1.80
2022-10-03T22:59:51.889Z,2.53
2022-10-03T23:02:29.390Z,3.03
2022-10-03T23:05:03.184Z,2.03
2022-10-03T23:07:48.208Z,1.60
2022-10-03T23:10:43.055Z,2.03
2022-10-03T23:13:15.436Z,2.43
2022-10-03T23:15:49.235Z,1.70
2022-10-03T23:18:48.680Z,1.67
2022-10-03T23:21:17.426Z,1.60
2022-10-03T23:24:03.685Z,1.60
2022-10-03T23:27:06.747Z,1.83
2022-10-03T23:29:35.579Z,1.70
2022-10-03T23:32:07.398Z,1.43
2022-10-03T23:35:08.368Z,2.03
2022-10-03T23:37:44.512Z,2.13
2022-10-03T23:40:39.575Z,2.00
2022-10-03T23:43:35.072Z,1.40
2022-10-03T23:46:06.760Z,2.77
2022-10-03T23:48:45.535Z,3.10
2022-10-03T23:51:25.830Z,1.53
2022-10-03T23:53:58.648Z,1.80
2022-10-03T23:56:35.682Z,2.13
2022-10-03T23:59:19.160Z,1.63
